Time;durP1;ratioP1;P1;durP2;ratioP2;P2;SDS_P1;SDS_P2;PMS_P1;PMS_P2;Temp;Humidity;BMP_temperature;BMP_pressure;BME280_temperature;BME280_humidity;BME280_pressure;Samples;Min_cycle;Max_cycle;Signal;HPM_P1;HPM_P2
2022/10/23 00:01:27;;;;;;;12.00;8.40;;;19.40;74.20;;;;;;5037507;28;20459;-85
2022/10/23 00:03:58;;;;;;;10.80;8.80;;;19.40;74.20;;;;;;5034053;28;20480;-85
2022/10/23 00:06:27;;;;;;;11.27;8.87;;;19.30;74.20;;;;;;5035478;28;20460;-86
2022/10/23 00:08:55;;;;;;;9.00;8.07;;;19.30;74.20;;;;;;5038375;28;20455;-85
2022/10/23 00:11:23;;;;;;;9.67;7.80;;;19.30;74.10;;;;;;5041764;28;20455;-84
2022/10/23 00:13:53;;;;;;;15.33;8.47;;;19.30;74.10;;;;;;5040233;28;20476;-85
2022/10/23 00:16:21;;;;;;;9.00;7.57;;;19.30;74.10;;;;;;5042108;28;20458;-85
2022/10/23 00:19:24;;;;;;;10.53;8.20;;;19.30;74.10;;;;;;5043991;28;20452;-85
2022/10/23 00:21:54;;;;;;;11.40;8.17;;;19.30;74.10;;;;;;5039484;28;20459;-85
2022/10/23 00:24:22;;;;;;;10.97;8.47;;;19.30;74.00;;;;;;5033672;28;20475;-85
2022/10/23 00:26:50;;;;;;;11.60;8.80;;;19.30;74.00;;;;;;5028428;28;20939;-85
2022/10/23 00:29:18;;;;;;;12.03;8.53;;;19.20;74.10;;;;;;5038766;28;20469;-85
2022/10/23 00:31:46;;;;;;;11.47;9.10;;;19.20;74.00;;;;;;5038610;28;20451;-84
2022/10/23 00:34:14;;;;;;;9.63;8.50;;;19.20;74.00;;;;;;5039431;28;20458;-84
2022/10/23 00:36:42;;;;;;;10.50;8.57;;;19.20;74.00;;;;;;5039534;28;20458;-84
2022/10/23 00:39:12;;;;;;;10.70;8.87;;;19.20;73.90;;;;;;5041117;28;20458;-85
2022/10/23 00:41:41;;;;;;;8.73;7.80;;;19.20;73.90;;;;;;5036936;28;20463;-85
2022/10/23 00:44:11;;;;;;;14.40;8.40;;;19.20;73.80;;;;;;5038467;28;20451;-85
2022/10/23 00:46:40;;;;;;;13.40;8.67;;;19.20;74.00;;;;;;5031055;28;20482;-85
2022/10/23 00:49:08;;;;;;;13.30;9.73;;;19.20;74.00;;;;;;5022918;28;20457;-85
2022/10/23 00:51:38;;;;;;;10.90;8.83;;;19.10;73.90;;;;;;5028162;28;20463;-85
2022/10/23 00:54:06;;;;;;;11.60;8.33;;;19.10;74.00;;;;;;5035617;28;20444;-85
2022/10/23 00:57:20;;;;;;;11.67;9.27;;;19.10;73.90;;;;;;5040862;28;20443;-85
2022/10/23 01:00:19;;;;;;;11.43;8.70;;;19.10;74.00;;;;;;5033450;28;20451;-85
2022/10/23 01:02:47;;;;;;;12.73;9.47;;;19.10;74.00;;;;;;5028087;28;20476;-85
2022/10/23 01:05:16;;;;;;;11.77;8.70;;;19.10;74.00;;;;;;5029932;28;20464;-85
2022/10/23 01:07:49;;;;;;;10.33;9.00;;;19.00;74.00;;;;;;5036961;28;20462;-85
2022/10/23 01:10:21;;;;;;;10.83;8.67;;;19.00;73.90;;;;;;5038247;28;20447;-85
2022/10/23 01:12:51;;;;;;;11.13;9.10;;;19.00;73.80;;;;;;5037830;28;20467;-85
2022/10/23 01:15:21;;;;;;;11.00;8.77;;;19.00;73.90;;;;;;5039398;28;20451;-85
2022/10/23 01:17:51;;;;;;;12.07;9.00;;;19.00;73.80;;;;;;5037455;28;20443;-85
2022/10/23 01:20:30;;;;;;;16.90;13.10;;;19.00;73.80;;;;;;5040213;28;20443;-85
2022/10/23 01:23:08;;;;;;;21.60;14.27;;;19.00;73.80;;;;;;5026737;28;20480;-86
2022/10/23 01:25:46;;;;;;;17.27;12.80;;;19.00;73.80;;;;;;5038248;28;20463;-85
2022/10/23 01:28:16;;;;;;;16.07;12.30;;;19.00;73.90;;;;;;5037970;28;20470;-85
2022/10/23 01:30:44;;;;;;;14.40;11.30;;;19.00;73.90;;;;;;5035274;28;20456;-85
2022/10/23 01:33:14;;;;;;;14.80;11.40;;;18.90;73.80;;;;;;5033597;28;20479;-85
2022/10/23 01:35:45;;;;;;;14.37;11.17;;;18.90;73.80;;;;;;5035059;28;20447;-85
2022/10/23 01:38:16;;;;;;;19.30;11.27;;;18.90;73.70;;;;;;5034274;28;20456;-85
2022/10/23 01:40:46;;;;;;;14.87;11.27;;;18.90;73.70;;;;;;5034139;28;20444;-85
2022/10/23 01:43:17;;;;;;;15.37;10.50;;;18.90;73.80;;;;;;5034404;28;20475;-84
2022/10/23 01:45:49;;;;;;;16.67;11.80;;;18.90;73.80;;;;;;5034303;28;20478;-85
2022/10/23 01:48:19;;;;;;;17.20;12.10;;;18.90;73.80;;;;;;5026697;28;20532;-85
2022/10/23 01:50:47;;;;;;;14.40;10.47;;;18.90;73.70;;;;;;5034835;28;20439;-85
2022/10/23 01:53:15;;;;;;;16.73;11.27;;;18.80;73.70;;;;;;5033918;28;20478;-86
2022/10/23 01:55:43;;;;;;;15.23;10.57;;;18.90;73.90;;;;;;5031420;28;20974;-87
2022/10/23 01:58:12;;;;;;;14.70;11.00;;;18.90;73.70;;;;;;5033027;28;20474;-86
2022/10/23 02:00:41;;;;;;;11.90;9.40;;;18.80;73.60;;;;;;5034089;28;20478;-85
2022/10/23 02:03:09;;;;;;;13.07;9.83;;;18.80;73.60;;;;;;5027975;28;20478;-85
2022/10/23 02:05:38;;;;;;;13.27;9.83;;;18.80;73.70;;;;;;5032718;28;20454;-85
2022/10/23 02:08:06;;;;;;;14.83;10.70;;;18.80;73.80;;;;;;5025211;28;20448;-86
2022/10/23 02:10:38;;;;;;;13.67;9.93;;;18.80;74.00;;;;;;5034631;28;20456;-85
2022/10/23 02:13:07;;;;;;;12.97;9.63;;;18.80;74.10;;;;;;5030232;28;20468;-85
2022/10/23 02:15:39;;;;;;;12.07;9.67;;;18.80;74.30;;;;;;5036678;28;20478;-85
2022/10/23 02:18:12;;;;;;;11.70;9.00;;;18.80;74.30;;;;;;5030591;28;20485;-85
2022/10/23 02:20:42;;;;;;;11.83;9.60;;;18.80;74.40;;;;;;5033828;28;20542;-85
2022/10/23 02:23:16;;;;;;;14.40;9.50;;;18.80;74.50;;;;;;5029044;28;20478;-84
2022/10/23 02:25:48;;;;;;;11.57;9.20;;;18.80;74.60;;;;;;5030346;28;20451;-85
2022/10/23 02:28:18;;;;;;;9.83;7.87;;;18.80;74.70;;;;;;5030199;28;20430;-84
2022/10/23 02:30:47;;;;;;;10.03;8.57;;;18.70;74.80;;;;;;5029892;28;20446;-85
2022/10/23 02:33:16;;;;;;;9.30;8.30;;;18.70;74.90;;;;;;5035047;28;20479;-84
2022/10/23 02:35:45;;;;;;;10.90;8.60;;;18.70;74.90;;;;;;5033245;28;20440;-85
2022/10/23 02:38:34;;;;;;;9.93;8.17;;;18.70;75.10;;;;;;5027235;28;20432;-85
2022/10/23 02:41:09;;;;;;;13.53;8.60;;;18.70;75.10;;;;;;5032318;28;20448;-84
2022/10/23 02:43:40;;;;;;;12.00;8.70;;;18.70;75.30;;;;;;5019337;28;20502;-84
2022/10/23 02:46:10;;;;;;;11.60;8.43;;;18.70;75.30;;;;;;5032606;28;20471;-84
2022/10/23 02:48:41;;;;;;;10.03;7.73;;;18.70;75.40;;;;;;5034206;28;20466;-84
2022/10/23 02:51:11;;;;;;;9.07;7.60;;;18.70;75.70;;;;;;5026222;28;20462;-84
2022/10/23 02:53:41;;;;;;;9.43;7.20;;;18.70;75.70;;;;;;5035639;28;20469;-84
2022/10/23 02:56:10;;;;;;;10.00;8.07;;;18.60;75.70;;;;;;5033889;28;20461;-84
2022/10/23 02:58:41;;;;;;;8.40;7.23;;;18.70;75.80;;;;;;5033953;28;20462;-84
2022/10/23 03:01:12;;;;;;;7.33;6.63;;;18.60;75.80;;;;;;5032977;28;20447;-84
2022/10/23 03:03:44;;;;;;;9.67;7.40;;;18.60;75.90;;;;;;5033565;28;20490;-85
2022/10/23 03:06:15;;;;;;;8.00;6.93;;;18.60;76.00;;;;;;5034865;28;20464;-85
2022/10/23 03:08:43;;;;;;;9.20;7.10;;;18.60;76.10;;;;;;5035233;28;20483;-85
2022/10/23 03:11:12;;;;;;;9.07;7.13;;;18.60;76.10;;;;;;5033872;28;20456;-85
2022/10/23 03:13:40;;;;;;;7.93;6.60;;;18.50;76.20;;;;;;5029737;28;20473;-85
2022/10/23 03:16:08;;;;;;;9.00;7.30;;;18.50;76.30;;;;;;5035375;28;20452;-84
2022/10/23 03:18:36;;;;;;;8.93;7.20;;;18.50;76.50;;;;;;5040583;28;20458;-85
2022/10/23 03:21:05;;;;;;;7.80;6.87;;;18.60;76.60;;;;;;5036980;28;20538;-85
2022/10/23 03:23:34;;;;;;;10.53;6.87;;;18.50;76.60;;;;;;5033937;28;20475;-85
2022/10/23 03:26:02;;;;;;;7.33;6.10;;;18.50;76.60;;;;;;5033450;28;20439;-85
2022/10/23 03:28:30;;;;;;;9.10;7.07;;;18.50;76.60;;;;;;5033709;28;20447;-85
2022/10/23 03:31:00;;;;;;;10.27;6.53;;;18.50;76.70;;;;;;5041461;28;20453;-85
2022/10/23 03:33:29;;;;;;;8.33;6.63;;;18.50;76.80;;;;;;5040077;28;20494;-85
2022/10/23 03:35:57;;;;;;;6.90;6.20;;;18.50;76.80;;;;;;5038674;28;20450;-85
2022/10/23 03:38:26;;;;;;;7.90;6.33;;;18.50;76.90;;;;;;5032729;28;20478;-85
2022/10/23 03:40:54;;;;;;;7.23;5.80;;;18.50;77.20;;;;;;5038804;28;20448;-85
2022/10/23 03:43:23;;;;;;;6.90;5.97;;;18.40;77.00;;;;;;5038620;28;20476;-85
2022/10/23 03:45:51;;;;;;;7.10;6.40;;;18.40;77.10;;;;;;5037363;28;20439;-85
2022/10/23 03:48:19;;;;;;;8.03;6.10;;;18.40;77.10;;;;;;5036252;28;20448;-85
2022/10/23 03:50:47;;;;;;;6.90;6.20;;;18.40;77.40;;;;;;5033235;28;20474;-85
2022/10/23 03:53:15;;;;;;;6.13;5.50;;;18.40;77.50;;;;;;5034328;28;20482;-85
2022/10/23 03:55:45;;;;;;;8.63;6.73;;;18.40;77.50;;;;;;5036460;28;20463;-85
2022/10/23 03:58:13;;;;;;;7.70;5.97;;;18.40;77.50;;;;;;5038846;28;20459;-85
2022/10/23 04:00:41;;;;;;;8.63;5.87;;;18.40;77.50;;;;;;5037569;28;20478;-85
2022/10/23 04:03:09;;;;;;;6.53;5.80;;;18.40;77.60;;;;;;5037225;28;20558;-85
2022/10/23 04:05:37;;;;;;;5.30;4.80;;;18.40;77.90;;;;;;5037660;28;20463;-85
2022/10/23 04:08:06;;;;;;;5.70;5.20;;;18.40;77.70;;;;;;5038236;28;21008;-85
2022/10/23 04:10:34;;;;;;;5.63;5.13;;;18.40;77.90;;;;;;5024788;28;20455;-85
2022/10/23 04:13:04;;;;;;;6.53;5.67;;;18.40;77.80;;;;;;5028862;28;20471;-85
2022/10/23 04:15:32;;;;;;;6.47;5.87;;;18.40;78.00;;;;;;5037730;28;20452;-85
2022/10/23 04:18:00;;;;;;;5.33;4.83;;;18.40;78.10;;;;;;5036397;28;20462;-85
2022/10/23 04:20:28;;;;;;;5.47;4.97;;;18.40;78.10;;;;;;5032390;28;20445;-85
2022/10/23 04:22:56;;;;;;;5.90;4.67;;;18.40;78.20;;;;;;5024318;28;20468;-85
2022/10/23 04:25:24;;;;;;;7.27;5.10;;;18.40;78.20;;;;;;5035175;28;20477;-85
2022/10/23 04:27:52;;;;;;;6.37;4.73;;;18.30;79.10;;;;;;5035744;28;20455;-85
2022/10/23 04:30:22;;;;;;;5.50;5.00;;;18.30;78.40;;;;;;5035966;28;20448;-84
2022/10/23 04:32:50;;;;;;;5.77;5.27;;;18.30;78.60;;;;;;5030346;28;20463;-85
2022/10/23 04:35:18;;;;;;;5.40;4.87;;;18.30;78.70;;;;;;5036521;28;20438;-85
2022/10/23 04:37:46;;;;;;;5.80;4.90;;;18.30;78.70;;;;;;5020914;28;20452;-85
2022/10/23 04:40:15;;;;;;;6.17;4.87;;;18.30;78.60;;;;;;5035245;28;20451;-85
2022/10/23 04:42:42;;;;;;;6.40;4.90;;;18.30;78.80;;;;;;5039649;28;20467;-85
2022/10/23 04:45:11;;;;;;;6.23;4.97;;;18.30;78.90;;;;;;5026328;28;20487;-85
2022/10/23 04:47:41;;;;;;;5.70;4.80;;;18.30;78.90;;;;;;5032019;28;20448;-85
2022/10/23 04:50:09;;;;;;;9.07;4.67;;;18.20;78.80;;;;;;5035395;28;20454;-85
2022/10/23 04:52:37;;;;;;;5.60;5.00;;;18.20;78.90;;;;;;5035715;28;20547;-85
2022/10/23 04:55:07;;;;;;;5.20;4.63;;;18.20;78.90;;;;;;5025897;28;20472;-85
2022/10/23 04:57:35;;;;;;;5.27;4.77;;;18.30;79.20;;;;;;5021397;28;20455;-85
2022/10/23 05:00:05;;;;;;;4.60;4.20;;;18.30;79.20;;;;;;5034874;28;20493;-85
2022/10/23 05:02:33;;;;;;;5.20;4.70;;;18.20;79.10;;;;;;5035020;28;20480;-84
2022/10/23 05:05:03;;;;;;;5.03;4.43;;;18.20;79.20;;;;;;5034805;28;20471;-84
2022/10/23 05:07:31;;;;;;;5.20;4.60;;;18.20;79.30;;;;;;5030177;28;20456;-84
2022/10/23 05:09:59;;;;;;;4.30;3.90;;;18.20;79.40;;;;;;5035969;28;20449;-84
2022/10/23 05:12:27;;;;;;;5.40;4.90;;;18.10;79.30;;;;;;5036623;28;20479;-84
2022/10/23 05:14:55;;;;;;;4.53;4.10;;;18.20;79.60;;;;;;5036720;28;20447;-84
2022/10/23 05:17:25;;;;;;;4.60;4.20;;;18.10;79.40;;;;;;5031892;28;20455;-84
2022/10/23 05:19:55;;;;;;;5.80;4.83;;;18.10;79.30;;;;;;5036158;28;20459;-84
2022/10/23 05:22:25;;;;;;;6.27;4.60;;;18.10;79.50;;;;;;5037100;28;20498;-84
2022/10/23 05:24:53;;;;;;;4.60;4.13;;;18.20;79.50;;;;;;5036313;28;20467;-84
2022/10/23 05:27:22;;;;;;;6.33;4.03;;;18.10;79.50;;;;;;5022918;28;20444;-84
2022/10/23 05:29:50;;;;;;;4.63;4.23;;;18.10;79.50;;;;;;5038266;28;20455;-85
2022/10/23 05:32:18;;;;;;;4.73;4.27;;;18.10;79.60;;;;;;5030051;28;20471;-85
2022/10/23 05:34:46;;;;;;;4.60;4.20;;;18.10;79.60;;;;;;5037793;28;20527;-85
2022/10/23 05:37:14;;;;;;;3.73;3.53;;;18.10;79.60;;;;;;5032631;28;20468;-85
2022/10/23 05:39:44;;;;;;;4.23;3.83;;;18.10;79.60;;;;;;5018930;28;20440;-85
2022/10/23 05:42:12;;;;;;;4.80;4.33;;;18.10;79.70;;;;;;5035240;28;20475;-85
2022/10/23 05:44:40;;;;;;;4.60;4.20;;;18.00;79.60;;;;;;5035692;28;20467;-85
2022/10/23 05:47:08;;;;;;;4.80;3.90;;;18.00;79.80;;;;;;5035483;28;20439;-85
2022/10/23 05:49:36;;;;;;;5.87;4.20;;;18.00;79.80;;;;;;5034643;28;20505;-85
2022/10/23 05:52:04;;;;;;;4.97;4.10;;;18.00;79.80;;;;;;5034630;28;20468;-85
2022/10/23 05:54:33;;;;;;;4.00;3.70;;;18.00;79.80;;;;;;5036768;28;20446;-85
2022/10/23 05:57:03;;;;;;;4.60;4.07;;;18.00;80.00;;;;;;5039290;28;20455;-83
2022/10/23 05:59:31;;;;;;;4.30;3.90;;;18.00;80.00;;;;;;5039406;28;20444;-84
2022/10/23 06:01:59;;;;;;;4.43;4.03;;;18.00;80.10;;;;;;5035123;28;20474;-84
2022/10/23 06:04:28;;;;;;;4.57;4.00;;;18.00;80.10;;;;;;5035713;28;20586;-84
2022/10/23 06:06:56;;;;;;;4.10;3.77;;;18.00;80.10;;;;;;5018784;28;20457;-85
2022/10/23 06:09:24;;;;;;;3.97;3.67;;;17.90;80.20;;;;;;5016639;28;20436;-84
2022/10/23 06:11:52;;;;;;;4.20;3.90;;;18.00;80.20;;;;;;5014935;28;20448;-84
2022/10/23 06:14:22;;;;;;;4.00;3.70;;;17.90;80.10;;;;;;5032107;28;20455;-84
2022/10/23 06:16:50;;;;;;;4.00;3.70;;;17.90;80.10;;;;;;5032268;28;20466;-85
2022/10/23 06:19:19;;;;;;;4.30;3.60;;;17.90;80.10;;;;;;5033264;28;20470;-85
2022/10/23 06:21:47;;;;;;;3.33;3.10;;;17.90;80.30;;;;;;5033157;28;20448;-84
2022/10/23 06:24:15;;;;;;;3.80;3.50;;;17.90;80.20;;;;;;5034393;28;20467;-84
2022/10/23 06:26:43;;;;;;;7.40;3.50;;;17.90;80.30;;;;;;5030041;28;20472;-85
2022/10/23 06:29:11;;;;;;;4.47;3.63;;;17.90;80.30;;;;;;5035855;28;20448;-85
2022/10/23 06:31:40;;;;;;;3.73;3.43;;;18.00;80.30;;;;;;5030102;28;20463;-85
2022/10/23 06:34:09;;;;;;;3.13;2.93;;;17.90;80.20;;;;;;5029599;28;20455;-85
2022/10/23 06:36:37;;;;;;;6.23;3.80;;;17.90;80.20;;;;;;5039406;28;20463;-86
2022/10/23 06:39:06;;;;;;;3.40;3.20;;;17.90;80.20;;;;;;5038913;28;20451;-85
2022/10/23 06:41:38;;;;;;;3.80;3.40;;;17.90;80.10;;;;;;5019330;28;20444;-87
2022/10/23 06:44:07;;;;;;;3.97;3.60;;;17.90;80.40;;;;;;5037956;28;20452;-86
2022/10/23 06:46:36;;;;;;;3.67;3.37;;;17.90;80.30;;;;;;5036697;28;20472;-85
2022/10/23 06:49:05;;;;;;;3.73;3.43;;;17.90;80.20;;;;;;5021630;28;20462;-85
2022/10/23 06:51:34;;;;;;;5.30;3.50;;;17.90;80.10;;;;;;5033078;28;20459;-85
2022/10/23 06:54:02;;;;;;;4.60;3.23;;;17.90;80.20;;;;;;5038664;28;20502;-85
2022/10/23 06:56:30;;;;;;;3.20;3.00;;;18.00;80.30;;;;;;5037658;28;20445;-83
2022/10/23 06:58:58;;;;;;;3.10;2.83;;;18.00;80.40;;;;;;5039822;28;20446;-83
2022/10/23 07:01:25;;;;;;;2.97;2.77;;;18.00;80.30;;;;;;5037584;28;20448;-84
2022/10/23 07:03:54;;;;;;;3.80;3.50;;;18.00;80.30;;;;;;5030318;28;20507;-84
2022/10/23 07:06:23;;;;;;;3.40;3.20;;;18.00;80.20;;;;;;5038853;28;20497;-83
2022/10/23 07:08:51;;;;;;;2.63;2.53;;;18.00;80.30;;;;;;5037074;28;20462;-84
2022/10/23 07:11:19;;;;;;;3.03;2.83;;;18.00;80.20;;;;;;5034020;28;20460;-85
2022/10/23 07:13:47;;;;;;;3.97;3.53;;;18.00;80.30;;;;;;5028712;28;20471;-85
2022/10/23 07:16:17;;;;;;;3.43;3.23;;;18.00;80.30;;;;;;5031716;28;20454;-86
2022/10/23 07:18:46;;;;;;;4.17;3.30;;;18.10;80.50;;;;;;5032002;28;20451;-85
2022/10/23 07:21:14;;;;;;;3.27;3.07;;;18.10;80.30;;;;;;5031407;28;20447;-86
2022/10/23 07:23:43;;;;;;;3.00;2.80;;;18.10;80.40;;;;;;5032746;28;20474;-86
2022/10/23 07:26:13;;;;;;;3.03;2.83;;;18.10;80.50;;;;;;5031090;28;20467;-85
2022/10/23 07:28:41;;;;;;;4.90;3.50;;;18.20;80.50;;;;;;5033370;28;20542;-85
2022/10/23 07:31:10;;;;;;;3.30;3.10;;;18.20;80.40;;;;;;5035614;28;20467;-85
2022/10/23 07:33:38;;;;;;;3.27;3.07;;;18.20;80.20;;;;;;5036990;28;20474;-86
2022/10/23 07:36:07;;;;;;;3.20;3.00;;;18.20;80.20;;;;;;5029790;28;20456;-87
2022/10/23 07:38:36;;;;;;;4.20;3.23;;;18.20;80.20;;;;;;5030720;28;20450;-85
2022/10/23 07:41:06;;;;;;;3.03;2.87;;;18.20;80.30;;;;;;5036480;28;20448;-85
2022/10/23 07:43:38;;;;;;;3.03;2.83;;;18.30;80.30;;;;;;5035278;28;20470;-85
2022/10/23 07:46:08;;;;;;;2.90;2.70;;;18.30;80.30;;;;;;5034719;28;20482;-86
2022/10/23 07:48:36;;;;;;;3.03;2.83;;;18.30;80.20;;;;;;5037064;28;20448;-86
2022/10/23 07:51:07;;;;;;;3.20;3.00;;;18.30;80.40;;;;;;5031174;28;20454;-86
2022/10/23 07:53:35;;;;;;;2.80;2.70;;;18.30;80.40;;;;;;5035408;28;20523;-84
2022/10/23 07:56:10;;;;;;;4.87;3.20;;;18.40;80.50;;;;;;5037708;28;20452;-86
2022/10/23 07:58:38;;;;;;;3.03;2.73;;;18.40;80.50;;;;;;5039646;28;20439;-86
2022/10/23 08:01:13;;;;;;;3.07;2.87;;;18.40;80.50;;;;;;5031949;28;20443;-85
2022/10/23 08:03:41;;;;;;;3.20;3.00;;;18.40;80.80;;;;;;5037532;28;20462;-86
2022/10/23 08:06:09;;;;;;;2.93;2.73;;;18.40;80.80;;;;;;5035917;28;20555;-85
2022/10/23 08:08:37;;;;;;;11.10;6.83;;;18.50;80.90;;;;;;5040315;28;20443;-81
2022/10/23 08:11:07;;;;;;;11.63;7.40;;;17.60;79.70;;;;;;5050766;28;20467;-83
2022/10/23 08:13:35;;;;;;;18.73;8.77;;;16.70;84.50;;;;;;5045633;28;20474;-81
2022/10/23 08:16:06;;;;;;;9.80;7.80;;;16.30;87.50;;;;;;5045018;28;20452;-82
2022/10/23 08:18:34;;;;;;;31.17;8.03;;;15.90;90.20;;;;;;5026944;28;20456;-81
2022/10/23 08:21:03;;;;;;;18.37;5.90;;;16.00;93.40;;;;;;5040559;28;20455;-79
2022/10/23 08:23:31;;;;;;;11.70;5.20;;;16.90;99.90;;;;;;5041148;28;20460;-78
2022/10/23 08:26:00;;;;;;;14.83;4.93;;;18.10;99.90;;;;;;5040124;28;20473;-80
2022/10/23 08:28:29;;;;;;;10.93;3.93;;;19.00;98.30;;;;;;5038665;28;20451;-77
2022/10/23 08:30:58;;;;;;;24.00;4.40;;;19.70;96.60;;;;;;5038740;28;20447;-76
2022/10/23 08:33:26;;;;;;;7.53;3.40;;;20.30;95.10;;;;;;5040463;28;20467;-81
2022/10/23 08:35:54;;;;;;;11.10;3.37;;;20.70;94.40;;;;;;5039409;28;20443;-79
2022/10/23 08:38:22;;;;;;;13.57;2.97;;;20.90;93.30;;;;;;5038966;28;20447;-78
2022/10/23 08:40:50;;;;;;;7.70;2.90;;;21.10;92.60;;;;;;5040312;28;20448;-79
2022/10/23 08:43:20;;;;;;;8.70;3.00;;;21.30;92.10;;;;;;5038777;28;20464;-78
2022/10/23 08:45:52;;;;;;;17.70;4.53;;;21.50;91.70;;;;;;5038699;28;20439;-78
2022/10/23 08:48:23;;;;;;;13.83;3.10;;;21.60;91.30;;;;;;5026067;28;20479;-82
2022/10/23 08:50:54;;;;;;;7.50;3.50;;;21.80;91.30;;;;;;5025969;28;20460;-82
2022/10/23 08:53:25;;;;;;;10.23;3.00;;;21.80;91.10;;;;;;5036874;28;20455;-81
2022/10/23 08:55:55;;;;;;;6.80;3.20;;;21.90;91.40;;;;;;5037220;28;20451;-80
2022/10/23 08:58:28;;;;;;;8.73;3.00;;;22.00;90.70;;;;;;5042430;28;20419;-79
2022/10/23 09:00:57;;;;;;;12.17;2.70;;;22.10;90.40;;;;;;5038747;28;20455;-81
2022/10/23 09:03:26;;;;;;;4.50;2.17;;;22.10;90.30;;;;;;5040231;28;21043;-82
2022/10/23 09:06:02;;;;;;;5.30;2.60;;;22.20;90.00;;;;;;5032134;28;20462;-80
2022/10/23 09:08:38;;;;;;;5.23;2.87;;;22.30;89.60;;;;;;5037051;28;20443;-80
2022/10/23 09:11:07;;;;;;;4.10;2.73;;;22.30;89.00;;;;;;5040530;28;20533;-81
2022/10/23 09:13:54;;;;;;;6.83;2.37;;;22.30;89.00;;;;;;5041365;28;20471;-80
2022/10/23 09:16:31;;;;;;;3.37;2.40;;;22.40;89.00;;;;;;5032672;28;20439;-79
2022/10/23 09:19:00;;;;;;;6.10;3.07;;;22.40;88.90;;;;;;5038717;28;20451;-79
2022/10/23 09:21:28;;;;;;;7.73;2.43;;;22.50;88.70;;;;;;5036776;28;20440;-79
2022/10/23 09:23:56;;;;;;;8.40;2.90;;;22.50;88.50;;;;;;5028906;28;20465;-80
2022/10/23 09:26:25;;;;;;;8.73;2.47;;;22.50;88.40;;;;;;5037415;28;20471;-79
2022/10/23 09:28:57;;;;;;;5.00;2.10;;;22.50;88.10;;;;;;5036769;28;20462;-81
2022/10/23 09:31:26;;;;;;;16.63;2.70;;;22.60;88.70;;;;;;5033921;28;20451;-78
2022/10/23 09:33:55;;;;;;;5.07;2.87;;;22.60;89.20;;;;;;5038942;28;20464;-79
2022/10/23 09:36:24;;;;;;;7.87;2.60;;;22.70;88.00;;;;;;5036930;28;20459;-80
2022/10/23 09:38:53;;;;;;;8.47;2.40;;;22.80;87.00;;;;;;5037347;28;20443;-81
2022/10/23 09:41:22;;;;;;;11.93;2.90;;;22.70;86.80;;;;;;5042055;28;20414;-80
2022/10/23 09:44:01;;;;;;;7.57;2.90;;;22.80;86.80;;;;;;5043672;28;20538;-81
2022/10/23 09:46:38;;;;;;;11.63;2.60;;;22.90;86.60;;;;;;5037681;28;20462;-77
2022/10/23 09:49:13;;;;;;;7.33;2.63;;;23.00;86.50;;;;;;5036940;28;20383;-79
2022/10/23 09:51:49;;;;;;;10.20;2.27;;;23.00;87.20;;;;;;5039519;28;20437;-80
2022/10/23 09:54:23;;;;;;;8.73;2.80;;;22.90;88.00;;;;;;5032323;28;20455;-81
2022/10/23 09:56:51;;;;;;;4.10;2.40;;;22.70;89.00;;;;;;5030198;28;20478;-81
2022/10/23 09:59:25;;;;;;;5.77;2.70;;;22.70;90.20;;;;;;5038982;28;20452;-82
2022/10/23 10:02:02;;;;;;;5.30;2.73;;;22.70;90.50;;;;;;5037415;28;20455;-80
2022/10/23 10:04:37;;;;;;;5.97;2.50;;;22.60;90.60;;;;;;5037162;28;20428;-81
2022/10/23 10:07:17;;;;;;;7.83;2.47;;;22.70;90.60;;;;;;5036410;28;20490;-79
2022/10/23 10:09:46;;;;;;;4.07;2.60;;;22.70;90.80;;;;;;5040590;28;20455;-79
2022/10/23 10:12:20;;;;;;;8.87;2.40;;;22.70;90.90;;;;;;5034724;28;20473;-78
2022/10/23 10:14:53;;;;;;;8.23;2.70;;;22.80;90.90;;;;;;5032464;28;20448;-81
2022/10/23 10:17:27;;;;;;;4.70;2.60;;;22.80;91.10;;;;;;5038105;28;20447;-81
2022/10/23 10:20:06;;;;;;;15.43;2.57;;;22.90;90.70;;;;;;5041040;28;20510;-82
2022/10/23 10:22:38;;;;;;;33.73;6.30;;;23.20;90.00;;;;;;5040448;28;20582;-81
2022/10/23 10:25:09;;;;;;;14.97;4.90;;;22.00;84.50;;;;;;5046868;28;20447;-81
2022/10/23 10:27:44;;;;;;;22.53;4.83;;;22.30;87.00;;;;;;5048708;28;20478;-81
2022/10/23 10:30:14;;;;;;;7.83;5.47;;;22.40;86.80;;;;;;5041770;28;20447;-80
2022/10/23 10:32:47;;;;;;;15.60;3.73;;;21.90;80.40;;;;;;5037028;28;20460;-78
2022/10/23 10:35:27;;;;;;;11.13;5.63;;;22.00;87.80;;;;;;5041675;28;20450;-79
2022/10/23 10:38:03;;;;;;;13.70;6.27;;;21.70;81.80;;;;;;5042568;28;20458;-79
2022/10/23 10:40:33;;;;;;;7.80;4.70;;;20.70;82.90;;;;;;5042064;28;20447;-79
2022/10/23 10:43:20;;;;;;;10.47;6.40;;;20.50;86.70;;;;;;5041803;28;20501;-79
2022/10/23 10:45:48;;;;;;;9.20;6.33;;;20.10;87.10;;;;;;5041625;28;20451;-79
2022/10/23 10:48:31;;;;;;;5.93;5.33;;;19.90;89.30;;;;;;5041470;28;20543;-79
2022/10/23 10:51:01;;;;;;;31.83;15.93;;;19.90;90.10;;;;;;5044523;28;20451;-79
2022/10/23 10:53:34;;;;;;;15.20;10.00;;;19.80;90.00;;;;;;5044743;28;20473;-79
2022/10/23 10:56:02;;;;;;;14.90;9.03;;;19.90;91.10;;;;;;5044082;28;20454;-80
2022/10/23 10:58:35;;;;;;;6.83;6.10;;;20.20;89.00;;;;;;5044789;28;20451;-80
2022/10/23 11:01:08;;;;;;;7.73;5.63;;;20.20;88.30;;;;;;5026304;28;20440;-80
2022/10/23 11:03:39;;;;;;;12.20;5.97;;;20.00;89.80;;;;;;5031942;28;20490;-80
2022/10/23 11:06:12;;;;;;;10.40;5.97;;;20.00;90.20;;;;;;5037366;28;20451;-79
2022/10/23 11:08:40;;;;;;;5.70;5.03;;;20.20;90.00;;;;;;5043630;28;20543;-80
2022/10/23 11:11:27;;;;;;;7.20;5.07;;;20.70;90.50;;;;;;5038927;28;20516;-81
2022/10/23 11:13:55;;;;;;;6.17;4.17;;;21.40;88.10;;;;;;5036429;28;20503;-81
2022/10/23 11:16:24;;;;;;;10.83;4.07;;;21.90;85.20;;;;;;5045481;28;20439;-82
2022/10/23 11:19:00;;;;;;;6.37;4.20;;;22.30;83.40;;;;;;5046130;28;20425;-81
2022/10/23 11:21:30;;;;;;;9.17;3.87;;;22.50;81.90;;;;;;5044910;28;20430;-81
2022/10/23 11:24:26;;;;;;;3.43;3.10;;;22.80;80.70;;;;;;5039528;28;20521;-81
2022/10/23 11:27:01;;;;;;;7.23;3.17;;;22.90;79.70;;;;;;5035759;28;20478;-83
2022/10/23 11:29:53;;;;;;;4.57;3.20;;;23.10;79.10;;;;;;5038804;28;20438;-81
2022/10/23 11:32:39;;;;;;;6.70;3.00;;;23.20;78.60;;;;;;5048889;28;20474;-82
2022/10/23 11:35:29;;;;;;;3.40;3.10;;;23.30;78.00;;;;;;5046301;28;20464;-82
2022/10/23 11:37:59;;;;;;;4.90;3.23;;;23.40;77.60;;;;;;5043001;28;20445;-82
2022/10/23 11:40:27;;;;;;;5.27;3.90;;;23.60;77.30;;;;;;5048062;28;20436;-81
2022/10/23 11:42:55;;;;;;;5.47;4.20;;;23.70;76.80;;;;;;5047114;28;20466;-81
2022/10/23 11:45:34;;;;;;;7.33;4.53;;;23.80;76.80;;;;;;5046124;28;20426;-82
2022/10/23 11:48:02;;;;;;;5.93;4.60;;;24.00;76.50;;;;;;5043411;28;20481;-81
2022/10/23 11:50:33;;;;;;;7.20;5.17;;;24.00;75.70;;;;;;5044299;28;20422;-81
2022/10/23 11:53:06;;;;;;;5.70;5.20;;;24.00;75.40;;;;;;5044409;28;20450;-81
2022/10/23 11:56:00;;;;;;;8.20;5.40;;;23.90;75.40;;;;;;5042966;28;20456;-81
2022/10/23 11:58:31;;;;;;;11.03;6.27;;;23.80;75.70;;;;;;5043558;28;20436;-83
2022/10/23 12:01:03;;;;;;;6.30;5.13;;;23.70;76.00;;;;;;5043641;28;20437;-82
2022/10/23 12:03:41;;;;;;;7.27;6.50;;;23.60;76.30;;;;;;5045814;28;20471;-81
2022/10/23 12:06:19;;;;;;;9.77;6.93;;;23.60;76.70;;;;;;5045260;28;20394;-82
2022/10/23 12:08:50;;;;;;;8.07;6.93;;;23.60;76.60;;;;;;5046707;28;20437;-81
2022/10/23 12:11:29;;;;;;;7.67;6.87;;;23.70;76.80;;;;;;5047565;28;20451;-83
2022/10/23 12:13:57;;;;;;;8.57;6.93;;;23.80;76.90;;;;;;5046708;28;20486;-82
2022/10/23 12:16:34;;;;;;;7.40;6.57;;;23.90;76.40;;;;;;5046649;28;20403;-84
2022/10/23 12:19:16;;;;;;;9.10;7.33;;;24.00;76.00;;;;;;5036480;28;20467;-85
2022/10/23 12:21:46;;;;;;;10.87;7.60;;;23.90;75.60;;;;;;5050970;28;20442;-84
2022/10/23 12:24:23;;;;;;;7.00;6.40;;;23.80;75.80;;;;;;5051814;28;20459;-85
2022/10/23 12:27:05;;;;;;;9.63;7.90;;;23.80;76.00;;;;;;5051351;28;20424;-85
2022/10/23 12:29:41;;;;;;;8.53;7.20;;;23.70;76.20;;;;;;5050650;28;20474;-84
2022/10/23 12:32:20;;;;;;;12.87;7.80;;;23.70;76.40;;;;;;5049345;28;20463;-84
2022/10/23 12:34:53;;;;;;;10.27;7.80;;;23.60;76.50;;;;;;5048647;28;20455;-85
2022/10/23 12:37:35;;;;;;;9.50;7.50;;;23.60;76.70;;;;;;5041052;28;20440;-84
2022/10/23 12:40:06;;;;;;;10.23;7.50;;;23.50;76.90;;;;;;5048629;28;20410;-84
2022/10/23 12:42:34;;;;;;;15.97;8.17;;;23.40;77.10;;;;;;5046725;28;20440;-84
2022/10/23 12:45:05;;;;;;;10.60;7.13;;;23.40;77.30;;;;;;5042628;28;20450;-83
2022/10/23 12:47:33;;;;;;;9.60;8.20;;;23.40;77.70;;;;;;5046417;28;20430;-84
2022/10/23 12:50:02;;;;;;;10.70;7.43;;;23.30;77.60;;;;;;5047916;28;20481;-84
2022/10/23 12:52:34;;;;;;;9.30;7.50;;;23.30;77.80;;;;;;5043575;28;20482;-82
2022/10/23 12:55:12;;;;;;;12.80;8.30;;;23.20;77.80;;;;;;5043226;28;20410;-82
2022/10/23 12:57:41;;;;;;;11.37;8.10;;;23.20;78.00;;;;;;5051694;28;20518;-82
2022/10/23 13:00:15;;;;;;;9.93;7.37;;;23.20;78.00;;;;;;5052856;28;20414;-82
2022/10/23 13:02:43;;;;;;;10.70;7.53;;;23.20;78.20;;;;;;5051603;28;20442;-86